Main page
METAR-TAF:

METAR-TAF

Airports :

Augsburg Airport

Augsburg, Germany

latitude: 48-26N, longitude: 010-56E, elevation: 461 m

Current weather observation

The report was made 17 minutes ago, at 03:20 UTC
Wind 2 kt from the South/Southeast
Temperature 11°C
Humidity 94%
Pressure 1015 hPa
Visibility 10 km or more

METAR: EDMA 170320Z AUTO 15002KT 9999 // NCD 11/10 Q1015

Time: 05:37 (03:37 UTC)

Forecast

The report was made 10 hours and 37 minutes ago, at 17:00 UTC
Forecast valid from 16 at 18 UTC to 17 at 03 UTC
Wind 5 kt from the East/Northeast
Visibility 10 km or more
no clouds below 1500 m and no cumulonimbus
Becoming
from 16 at 18 UTC to 16 at 20 UTC
Wind 3 kt from variable directions

TAF: EDMA 161700Z 1618/1703 07005KT CAVOK BECMG 1618/1620 VRB03KT

Weather observations and forecasts of more than 4000 airports (METAR and TAF reports).

The available stations are represented by yellow and red dots on the map.

Hover mouse over dot to see the name of the station.

Then click to see weather observations and forecasts.

To change the map : click on the green buttons with a black cross to zoom in, on the green button with a dash to zoom out, or on the green arrows for adjacent maps.


METAR-TAF: